sensor_id;sensor_type;location;lat;lon;timestamp;temperature;humidity
22645;DHT22;11489;50.834;6.752;2023-05-10T00:00:13;12.90;96.00
22645;DHT22;11489;50.834;6.752;2023-05-10T00:02:39;12.90;96.00
22645;DHT22;11489;50.834;6.752;2023-05-10T00:05:06;12.90;96.00
22645;DHT22;11489;50.834;6.752;2023-05-10T00:07:32;12.90;96.00
22645;DHT22;11489;50.834;6.752;2023-05-10T00:09:58;12.90;96.00
22645;DHT22;11489;50.834;6.752;2023-05-10T00:12:23;12.90;96.00
22645;DHT22;11489;50.834;6.752;2023-05-10T00:14:49;12.90;96.00
22645;DHT22;11489;50.834;6.752;2023-05-10T00:17:15;12.90;96.10
22645;DHT22;11489;50.834;6.752;2023-05-10T00:19:40;12.90;96.10
22645;DHT22;11489;50.834;6.752;2023-05-10T00:22:06;12.90;96.10
22645;DHT22;11489;50.834;6.752;2023-05-10T00:24:31;13.00;96.10
22645;DHT22;11489;50.834;6.752;2023-05-10T00:26:57;13.00;96.20
22645;DHT22;11489;50.834;6.752;2023-05-10T00:29:23;13.00;96.20
22645;DHT22;11489;50.834;6.752;2023-05-10T00:31:49;13.00;96.20
22645;DHT22;11489;50.834;6.752;2023-05-10T00:34:15;13.00;96.20
22645;DHT22;11489;50.834;6.752;2023-05-10T00:36:40;13.00;96.10
22645;DHT22;11489;50.834;6.752;2023-05-10T00:39:06;13.00;96.10
22645;DHT22;11489;50.834;6.752;2023-05-10T00:41:33;13.00;96.10
22645;DHT22;11489;50.834;6.752;2023-05-10T00:43:59;13.00;96.10
22645;DHT22;11489;50.834;6.752;2023-05-10T00:46:25;13.00;96.10
22645;DHT22;11489;50.834;6.752;2023-05-10T00:48:51;13.00;96.10
22645;DHT22;11489;50.834;6.752;2023-05-10T00:51:17;13.00;96.10
22645;DHT22;11489;50.834;6.752;2023-05-10T00:53:45;13.00;96.10
22645;DHT22;11489;50.834;6.752;2023-05-10T00:56:12;13.00;96.10
22645;DHT22;11489;50.834;6.752;2023-05-10T00:58:39;13.00;96.10
22645;DHT22;11489;50.834;6.752;2023-05-10T01:01:04;13.00;96.10
22645;DHT22;11489;50.834;6.752;2023-05-10T01:03:32;13.00;96.10
22645;DHT22;11489;50.834;6.752;2023-05-10T01:05:58;13.00;96.10
22645;DHT22;11489;50.834;6.752;2023-05-10T01:08:24;13.00;96.10
22645;DHT22;11489;50.834;6.752;2023-05-10T01:10:50;13.00;96.20
22645;DHT22;11489;50.834;6.752;2023-05-10T01:13:36;13.00;96.10
22645;DHT22;11489;50.834;6.752;2023-05-10T01:16:02;13.00;96.10
22645;DHT22;11489;50.834;6.752;2023-05-10T01:18:30;13.00;96.20
22645;DHT22;11489;50.834;6.752;2023-05-10T01:35:14;13.00;96.10
22645;DHT22;11489;50.834;6.752;2023-05-10T01:37:49;13.00;96.00
22645;DHT22;11489;50.834;6.752;2023-05-10T01:40:26;13.00;96.10
22645;DHT22;11489;50.834;6.752;2023-05-10T01:42:58;13.00;96.10
22645;DHT22;11489;50.834;6.752;2023-05-10T01:45:39;12.90;96.10
22645;DHT22;11489;50.834;6.752;2023-05-10T01:48:09;12.90;96.20
22645;DHT22;11489;50.834;6.752;2023-05-10T01:50:37;12.90;96.20
22645;DHT22;11489;50.834;6.752;2023-05-10T01:53:06;12.90;96.30
22645;DHT22;11489;50.834;6.752;2023-05-10T01:55:36;13.00;96.30
22645;DHT22;11489;50.834;6.752;2023-05-10T01:58:10;13.00;96.30
22645;DHT22;11489;50.834;6.752;2023-05-10T02:00:36;12.90;96.30
22645;DHT22;11489;50.834;6.752;2023-05-10T02:03:06;13.00;96.30
22645;DHT22;11489;50.834;6.752;2023-05-10T02:05:35;13.00;96.30
22645;DHT22;11489;50.834;6.752;2023-05-10T02:08:01;13.00;96.30
22645;DHT22;11489;50.834;6.752;2023-05-10T02:10:29;13.00;96.40
22645;DHT22;11489;50.834;6.752;2023-05-10T02:12:58;13.00;96.40
22645;DHT22;11489;50.834;6.752;2023-05-10T02:15:25;13.00;96.30
22645;DHT22;11489;50.834;6.752;2023-05-10T02:17:54;13.00;96.30
22645;DHT22;11489;50.834;6.752;2023-05-10T02:20:22;13.00;96.30
22645;DHT22;11489;50.834;6.752;2023-05-10T02:22:54;13.00;96.30
22645;DHT22;11489;50.834;6.752;2023-05-10T02:25:22;13.00;96.60
22645;DHT22;11489;50.834;6.752;2023-05-10T02:27:49;13.00;96.30
22645;DHT22;11489;50.834;6.752;2023-05-10T02:30:15;13.00;96.30
22645;DHT22;11489;50.834;6.752;2023-05-10T02:32:42;13.00;96.30
22645;DHT22;11489;50.834;6.752;2023-05-10T02:35:09;13.00;96.30
22645;DHT22;11489;50.834;6.752;2023-05-10T02:37:37;13.00;96.30
22645;DHT22;11489;50.834;6.752;2023-05-10T02:40:05;13.00;96.60
22645;DHT22;11489;50.834;6.752;2023-05-10T02:42:35;13.00;96.30
22645;DHT22;11489;50.834;6.752;2023-05-10T02:45:02;13.00;96.40
22645;DHT22;11489;50.834;6.752;2023-05-10T02:47:29;13.00;96.30
22645;DHT22;11489;50.834;6.752;2023-05-10T02:49:55;13.00;96.30
22645;DHT22;11489;50.834;6.752;2023-05-10T02:52:28;13.10;96.40
22645;DHT22;11489;50.834;6.752;2023-05-10T02:54:55;13.00;96.30
22645;DHT22;11489;50.834;6.752;2023-05-10T02:57:27;13.10;96.30
22645;DHT22;11489;50.834;6.752;2023-05-10T02:59:54;13.00;96.30
22645;DHT22;11489;50.834;6.752;2023-05-10T03:02:20;13.00;96.20
22645;DHT22;11489;50.834;6.752;2023-05-10T03:04:46;13.00;96.20
22645;DHT22;11489;50.834;6.752;2023-05-10T03:07:12;13.00;96.20
22645;DHT22;11489;50.834;6.752;2023-05-10T03:09:38;13.00;96.20
22645;DHT22;11489;50.834;6.752;2023-05-10T03:12:11;13.00;96.20
22645;DHT22;11489;50.834;6.752;2023-05-10T03:17:47;13.00;96.20
22645;DHT22;11489;50.834;6.752;2023-05-10T03:20:35;13.10;96.20
22645;DHT22;11489;50.834;6.752;2023-05-10T03:23:11;13.10;96.20
22645;DHT22;11489;50.834;6.752;2023-05-10T03:25:37;13.10;96.30
22645;DHT22;11489;50.834;6.752;2023-05-10T03:28:06;13.10;96.30
22645;DHT22;11489;50.834;6.752;2023-05-10T03:30:32;13.10;96.30
22645;DHT22;11489;50.834;6.752;2023-05-10T03:32:58;13.10;96.40
22645;DHT22;11489;50.834;6.752;2023-05-10T03:35:29;13.10;96.40
22645;DHT22;11489;50.834;6.752;2023-05-10T03:37:55;13.10;96.40
22645;DHT22;11489;50.834;6.752;2023-05-10T03:40:20;13.10;96.40
22645;DHT22;11489;50.834;6.752;2023-05-10T03:42:46;13.10;96.40
22645;DHT22;11489;50.834;6.752;2023-05-10T03:45:11;13.10;96.40
22645;DHT22;11489;50.834;6.752;2023-05-10T03:47:37;13.10;96.40
22645;DHT22;11489;50.834;6.752;2023-05-10T03:50:03;13.10;96.40
22645;DHT22;11489;50.834;6.752;2023-05-10T03:52:29;13.10;96.30
22645;DHT22;11489;50.834;6.752;2023-05-10T03:54:55;13.10;96.30
22645;DHT22;11489;50.834;6.752;2023-05-10T03:57:22;13.10;96.30
22645;DHT22;11489;50.834;6.752;2023-05-10T03:59:48;13.10;96.30
22645;DHT22;11489;50.834;6.752;2023-05-10T04:02:14;13.10;96.30
22645;DHT22;11489;50.834;6.752;2023-05-10T04:04:39;13.10;96.40
22645;DHT22;11489;50.834;6.752;2023-05-10T04:07:05;13.10;96.30
22645;DHT22;11489;50.834;6.752;2023-05-10T04:09:31;13.10;96.60
22645;DHT22;11489;50.834;6.752;2023-05-10T04:11:58;13.10;96.30
22645;DHT22;11489;50.834;6.752;2023-05-10T04:14:23;13.10;96.40
22645;DHT22;11489;50.834;6.752;2023-05-10T04:16:49;13.10;96.30
22645;DHT22;11489;50.834;6.752;2023-05-10T04:19:15;13.10;96.40
22645;DHT22;11489;50.834;6.752;2023-05-10T04:21:40;13.10;96.30
22645;DHT22;11489;50.834;6.752;2023-05-10T04:24:06;13.10;96.30
22645;DHT22;11489;50.834;6.752;2023-05-10T04:26:32;13.00;96.30
22645;DHT22;11489;50.834;6.752;2023-05-10T04:28:57;13.10;96.40
22645;DHT22;11489;50.834;6.752;2023-05-10T04:31:23;13.10;96.40
22645;DHT22;11489;50.834;6.752;2023-05-10T04:33:49;13.10;96.40
22645;DHT22;11489;50.834;6.752;2023-05-10T04:36:15;13.10;96.40
22645;DHT22;11489;50.834;6.752;2023-05-10T04:38:41;13.10;96.40
22645;DHT22;11489;50.834;6.752;2023-05-10T04:41:08;13.10;96.40
22645;DHT22;11489;50.834;6.752;2023-05-10T04:43:34;13.10;96.40
22645;DHT22;11489;50.834;6.752;2023-05-10T04:46:00;13.10;96.50
22645;DHT22;11489;50.834;6.752;2023-05-10T04:48:26;13.10;96.50
22645;DHT22;11489;50.834;6.752;2023-05-10T04:50:51;13.10;96.50
22645;DHT22;11489;50.834;6.752;2023-05-10T04:53:17;13.20;96.50
22645;DHT22;11489;50.834;6.752;2023-05-10T04:55:43;13.20;96.50
22645;DHT22;11489;50.834;6.752;2023-05-10T04:58:08;13.10;96.40
22645;DHT22;11489;50.834;6.752;2023-05-10T05:00:34;13.10;96.30
22645;DHT22;11489;50.834;6.752;2023-05-10T05:03:00;13.10;96.30
22645;DHT22;11489;50.834;6.752;2023-05-10T05:05:26;13.10;96.30
22645;DHT22;11489;50.834;6.752;2023-05-10T05:07:52;13.10;96.20
22645;DHT22;11489;50.834;6.752;2023-05-10T05:10:17;13.10;96.20
22645;DHT22;11489;50.834;6.752;2023-05-10T05:12:43;13.10;96.20
22645;DHT22;11489;50.834;6.752;2023-05-10T05:15:09;13.10;96.20
22645;DHT22;11489;50.834;6.752;2023-05-10T05:17:35;13.00;96.10
22645;DHT22;11489;50.834;6.752;2023-05-10T05:20:01;13.00;96.10
22645;DHT22;11489;50.834;6.752;2023-05-10T05:22:27;13.00;96.10
22645;DHT22;11489;50.834;6.752;2023-05-10T05:24:57;13.00;96.20
22645;DHT22;11489;50.834;6.752;2023-05-10T05:27:24;13.00;96.20
22645;DHT22;11489;50.834;6.752;2023-05-10T05:29:56;13.00;96.30
22645;DHT22;11489;50.834;6.752;2023-05-10T05:32:22;13.00;96.40
22645;DHT22;11489;50.834;6.752;2023-05-10T05:34:48;13.00;96.50
22645;DHT22;11489;50.834;6.752;2023-05-10T05:37:18;13.00;96.60
22645;DHT22;11489;50.834;6.752;2023-05-10T05:39:45;13.10;96.70
22645;DHT22;11489;50.834;6.752;2023-05-10T05:42:11;13.10;96.70
22645;DHT22;11489;50.834;6.752;2023-05-10T05:44:37;13.20;96.70
22645;DHT22;11489;50.834;6.752;2023-05-10T05:47:03;13.20;96.70
22645;DHT22;11489;50.834;6.752;2023-05-10T05:49:29;13.30;96.70
22645;DHT22;11489;50.834;6.752;2023-05-10T05:51:59;13.30;96.70
22645;DHT22;11489;50.834;6.752;2023-05-10T05:54:25;13.30;96.70
22645;DHT22;11489;50.834;6.752;2023-05-10T05:56:57;13.40;96.80
22645;DHT22;11489;50.834;6.752;2023-05-10T05:59:23;13.50;96.80
22645;DHT22;11489;50.834;6.752;2023-05-10T06:01:49;13.60;96.80
22645;DHT22;11489;50.834;6.752;2023-05-10T06:04:14;13.60;97.10
22645;DHT22;11489;50.834;6.752;2023-05-10T06:06:40;13.60;96.70
22645;DHT22;11489;50.834;6.752;2023-05-10T06:09:06;13.70;96.60
22645;DHT22;11489;50.834;6.752;2023-05-10T06:11:31;13.70;96.50
22645;DHT22;11489;50.834;6.752;2023-05-10T06:13:58;13.70;96.70
22645;DHT22;11489;50.834;6.752;2023-05-10T06:16:23;13.80;96.30
22645;DHT22;11489;50.834;6.752;2023-05-10T06:18:49;13.80;96.20
22645;DHT22;11489;50.834;6.752;2023-05-10T06:21:15;13.80;96.00
22645;DHT22;11489;50.834;6.752;2023-05-10T06:23:41;13.80;95.80
22645;DHT22;11489;50.834;6.752;2023-05-10T06:26:07;13.80;95.80
22645;DHT22;11489;50.834;6.752;2023-05-10T06:28:33;13.80;95.70
22645;DHT22;11489;50.834;6.752;2023-05-10T06:30:59;13.80;95.70
22645;DHT22;11489;50.834;6.752;2023-05-10T06:33:25;13.80;95.80
22645;DHT22;11489;50.834;6.752;2023-05-10T06:35:51;13.80;95.80
22645;DHT22;11489;50.834;6.752;2023-05-10T06:38:17;13.70;95.70
22645;DHT22;11489;50.834;6.752;2023-05-10T06:40:43;13.70;95.70
22645;DHT22;11489;50.834;6.752;2023-05-10T06:43:09;13.70;95.60
22645;DHT22;11489;50.834;6.752;2023-05-10T06:45:35;13.70;95.60
22645;DHT22;11489;50.834;6.752;2023-05-10T06:48:01;13.70;95.60
22645;DHT22;11489;50.834;6.752;2023-05-10T06:50:27;13.70;95.60
22645;DHT22;11489;50.834;6.752;2023-05-10T06:52:52;13.70;95.60
22645;DHT22;11489;50.834;6.752;2023-05-10T06:55:18;13.60;95.60
22645;DHT22;11489;50.834;6.752;2023-05-10T06:57:44;13.60;95.70
22645;DHT22;11489;50.834;6.752;2023-05-10T07:00:10;13.60;95.80
22645;DHT22;11489;50.834;6.752;2023-05-10T07:02:36;13.60;95.90
22645;DHT22;11489;50.834;6.752;2023-05-10T07:05:01;13.60;96.10
22645;DHT22;11489;50.834;6.752;2023-05-10T07:07:27;13.70;96.40
22645;DHT22;11489;50.834;6.752;2023-05-10T07:09:53;13.70;96.60
22645;DHT22;11489;50.834;6.752;2023-05-10T07:12:19;13.80;96.80
22645;DHT22;11489;50.834;6.752;2023-05-10T07:14:45;13.90;96.90
22645;DHT22;11489;50.834;6.752;2023-05-10T07:17:11;14.00;96.90
22645;DHT22;11489;50.834;6.752;2023-05-10T07:19:36;14.00;96.80
22645;DHT22;11489;50.834;6.752;2023-05-10T07:22:02;14.10;96.80
22645;DHT22;11489;50.834;6.752;2023-05-10T07:24:28;14.20;96.80
22645;DHT22;11489;50.834;6.752;2023-05-10T07:26:53;14.30;96.80
22645;DHT22;11489;50.834;6.752;2023-05-10T07:29:19;14.40;96.80
22645;DHT22;11489;50.834;6.752;2023-05-10T07:31:45;14.50;96.70
22645;DHT22;11489;50.834;6.752;2023-05-10T07:34:10;14.60;96.80
22645;DHT22;11489;50.834;6.752;2023-05-10T07:36:36;14.70;96.70
22645;DHT22;11489;50.834;6.752;2023-05-10T07:39:02;14.80;96.70
22645;DHT22;11489;50.834;6.752;2023-05-10T07:41:27;14.80;96.50
22645;DHT22;11489;50.834;6.752;2023-05-10T07:43:53;14.90;96.40
22645;DHT22;11489;50.834;6.752;2023-05-10T07:46:19;15.00;96.40
22645;DHT22;11489;50.834;6.752;2023-05-10T07:48:47;15.00;96.30
22645;DHT22;11489;50.834;6.752;2023-05-10T07:51:13;15.10;96.20
22645;DHT22;11489;50.834;6.752;2023-05-10T07:53:39;15.20;96.00
22645;DHT22;11489;50.834;6.752;2023-05-10T07:56:26;15.20;95.80
22645;DHT22;11489;50.834;6.752;2023-05-10T07:58:55;15.20;95.00
22645;DHT22;11489;50.834;6.752;2023-05-10T08:01:21;15.20;95.40
22645;DHT22;11489;50.834;6.752;2023-05-10T08:03:47;15.10;95.30
22645;DHT22;11489;50.834;6.752;2023-05-10T08:06:14;15.10;95.20
22645;DHT22;11489;50.834;6.752;2023-05-10T08:08:41;15.10;95.00
22645;DHT22;11489;50.834;6.752;2023-05-10T08:11:07;15.00;94.90
22645;DHT22;11489;50.834;6.752;2023-05-10T08:13:33;15.00;94.80
22645;DHT22;11489;50.834;6.752;2023-05-10T08:15:59;14.90;94.90
22645;DHT22;11489;50.834;6.752;2023-05-10T08:18:25;14.90;95.00
22645;DHT22;11489;50.834;6.752;2023-05-10T08:20:50;14.80;94.90
22645;DHT22;11489;50.834;6.752;2023-05-10T08:23:16;14.80;94.90
22645;DHT22;11489;50.834;6.752;2023-05-10T08:25:41;14.80;95.00
22645;DHT22;11489;50.834;6.752;2023-05-10T08:28:07;14.70;95.20
22645;DHT22;11489;50.834;6.752;2023-05-10T08:30:33;14.70;95.50
22645;DHT22;11489;50.834;6.752;2023-05-10T08:32:58;14.70;95.70
22645;DHT22;11489;50.834;6.752;2023-05-10T08:35:24;14.70;95.80
22645;DHT22;11489;50.834;6.752;2023-05-10T08:37:51;14.70;95.80
22645;DHT22;11489;50.834;6.752;2023-05-10T08:40:19;14.80;95.80
22645;DHT22;11489;50.834;6.752;2023-05-10T08:43:04;14.80;95.70
22645;DHT22;11489;50.834;6.752;2023-05-10T08:45:33;14.90;95.70
22645;DHT22;11489;50.834;6.752;2023-05-10T08:48:02;14.90;95.70
22645;DHT22;11489;50.834;6.752;2023-05-10T08:50:28;14.90;95.60
22645;DHT22;11489;50.834;6.752;2023-05-10T08:52:59;14.90;95.70
22645;DHT22;11489;50.834;6.752;2023-05-10T08:55:25;15.00;95.80
22645;DHT22;11489;50.834;6.752;2023-05-10T08:57:51;15.00;95.90
22645;DHT22;11489;50.834;6.752;2023-05-10T09:00:17;15.10;96.10
22645;DHT22;11489;50.834;6.752;2023-05-10T09:02:44;15.10;96.00
22645;DHT22;11489;50.834;6.752;2023-05-10T09:05:12;15.20;96.00
22645;DHT22;11489;50.834;6.752;2023-05-10T09:07:37;15.30;96.10
22645;DHT22;11489;50.834;6.752;2023-05-10T09:10:04;15.40;96.00
22645;DHT22;11489;50.834;6.752;2023-05-10T09:12:30;15.40;95.90
22645;DHT22;11489;50.834;6.752;2023-05-10T09:14:58;15.50;95.80
22645;DHT22;11489;50.834;6.752;2023-05-10T09:17:25;15.50;95.60
22645;DHT22;11489;50.834;6.752;2023-05-10T09:19:58;15.60;95.50
22645;DHT22;11489;50.834;6.752;2023-05-10T09:22:24;15.60;95.10
22645;DHT22;11489;50.834;6.752;2023-05-10T09:25:07;15.60;95.40
22645;DHT22;11489;50.834;6.752;2023-05-10T09:27:33;15.60;94.60
22645;DHT22;11489;50.834;6.752;2023-05-10T09:29:59;15.70;95.30
22645;DHT22;11489;50.834;6.752;2023-05-10T09:32:43;15.70;95.30
22645;DHT22;11489;50.834;6.752;2023-05-10T09:35:17;15.80;94.60
22645;DHT22;11489;50.834;6.752;2023-05-10T09:37:45;15.70;94.50
22645;DHT22;11489;50.834;6.752;2023-05-10T09:40:19;15.80;95.10
22645;DHT22;11489;50.834;6.752;2023-05-10T09:42:58;15.80;95.40
22645;DHT22;11489;50.834;6.752;2023-05-10T09:45:25;15.90;95.00
22645;DHT22;11489;50.834;6.752;2023-05-10T09:47:51;16.00;95.70
22645;DHT22;11489;50.834;6.752;2023-05-10T09:50:17;16.10;95.60
22645;DHT22;11489;50.834;6.752;2023-05-10T09:55:18;16.30;94.90
22645;DHT22;11489;50.834;6.752;2023-05-10T09:57:44;16.40;94.90
22645;DHT22;11489;50.834;6.752;2023-05-10T10:00:10;16.40;94.50
22645;DHT22;11489;50.834;6.752;2023-05-10T10:02:35;16.40;94.30
22645;DHT22;11489;50.834;6.752;2023-05-10T10:05:02;16.40;94.30
22645;DHT22;11489;50.834;6.752;2023-05-10T10:07:31;16.40;94.20
22645;DHT22;11489;50.834;6.752;2023-05-10T10:09:58;16.40;94.50
22645;DHT22;11489;50.834;6.752;2023-05-10T10:12:25;16.40;94.20
22645;DHT22;11489;50.834;6.752;2023-05-10T10:14:51;16.40;94.60
22645;DHT22;11489;50.834;6.752;2023-05-10T10:17:19;16.40;94.90
22645;DHT22;11489;50.834;6.752;2023-05-10T10:19:47;16.50;95.00
22645;DHT22;11489;50.834;6.752;2023-05-10T10:22:13;16.60;95.30
22645;DHT22;11489;50.834;6.752;2023-05-10T10:24:39;16.70;95.40
22645;DHT22;11489;50.834;6.752;2023-05-10T10:29:52;17.00;93.00
22645;DHT22;11489;50.834;6.752;2023-05-10T10:35:01;17.10;93.10
22645;DHT22;11489;50.834;6.752;2023-05-10T10:37:44;17.20;94.00
22645;DHT22;11489;50.834;6.752;2023-05-10T10:40:30;17.20;92.90
22645;DHT22;11489;50.834;6.752;2023-05-10T10:42:57;17.30;93.10
22645;DHT22;11489;50.834;6.752;2023-05-10T10:45:24;17.40;94.60
22645;DHT22;11489;50.834;6.752;2023-05-10T10:48:20;17.50;94.30
22645;DHT22;11489;50.834;6.752;2023-05-10T10:50:46;17.60;92.80
22645;DHT22;11489;50.834;6.752;2023-05-10T10:53:12;17.70;94.70
22645;DHT22;11489;50.834;6.752;2023-05-10T10:55:47;17.90;95.10
22645;DHT22;11489;50.834;6.752;2023-05-10T10:58:30;18.10;95.10
22645;DHT22;11489;50.834;6.752;2023-05-10T11:01:17;18.40;94.20
22645;DHT22;11489;50.834;6.752;2023-05-10T11:04:18;18.70;93.60
22645;DHT22;11489;50.834;6.752;2023-05-10T11:06:45;18.90;92.10
22645;DHT22;11489;50.834;6.752;2023-05-10T11:09:12;18.90;94.10
22645;DHT22;11489;50.834;6.752;2023-05-10T11:11:54;19.10;94.00
22645;DHT22;11489;50.834;6.752;2023-05-10T11:14:23;19.10;92.40
22645;DHT22;11489;50.834;6.752;2023-05-10T11:16:49;19.20;93.70
22645;DHT22;11489;50.834;6.752;2023-05-10T11:19:16;19.30;93.30
22645;DHT22;11489;50.834;6.752;2023-05-10T11:24:31;19.40;90.90
22645;DHT22;11489;50.834;6.752;2023-05-10T11:26:57;19.30;92.70
22645;DHT22;11489;50.834;6.752;2023-05-10T11:29:22;19.30;92.60
22645;DHT22;11489;50.834;6.752;2023-05-10T11:31:49;19.30;92.60
22645;DHT22;11489;50.834;6.752;2023-05-10T11:34:29;19.20;92.20
22645;DHT22;11489;50.834;6.752;2023-05-10T11:37:00;19.10;90.80
22645;DHT22;11489;50.834;6.752;2023-05-10T11:39:27;19.00;92.10
22645;DHT22;11489;50.834;6.752;2023-05-10T11:41:54;18.90;92.20
22645;DHT22;11489;50.834;6.752;2023-05-10T11:44:19;18.90;92.60
22645;DHT22;11489;50.834;6.752;2023-05-10T11:46:45;18.90;92.90
22645;DHT22;11489;50.834;6.752;2023-05-10T11:49:11;18.90;93.10
22645;DHT22;11489;50.834;6.752;2023-05-10T11:51:38;18.90;92.70
22645;DHT22;11489;50.834;6.752;2023-05-10T11:54:09;18.80;92.50
22645;DHT22;11489;50.834;6.752;2023-05-10T11:56:37;18.80;92.30
22645;DHT22;11489;50.834;6.752;2023-05-10T11:59:03;18.80;93.10
22645;DHT22;11489;50.834;6.752;2023-05-10T12:01:30;18.90;93.30
22645;DHT22;11489;50.834;6.752;2023-05-10T12:03:57;18.90;93.40
22645;DHT22;11489;50.834;6.752;2023-05-10T12:06:31;19.00;93.50
22645;DHT22;11489;50.834;6.752;2023-05-10T12:08:57;19.10;92.70
22645;DHT22;11489;50.834;6.752;2023-05-10T12:11:27;19.20;93.30
22645;DHT22;11489;50.834;6.752;2023-05-10T12:13:54;19.20;92.60
22645;DHT22;11489;50.834;6.752;2023-05-10T12:16:25;19.30;93.00
22645;DHT22;11489;50.834;6.752;2023-05-10T12:18:52;19.30;92.20
22645;DHT22;11489;50.834;6.752;2023-05-10T12:21:22;19.20;92.10
22645;DHT22;11489;50.834;6.752;2023-05-10T12:23:52;19.10;91.00
22645;DHT22;11489;50.834;6.752;2023-05-10T12:26:22;19.10;91.50
22645;DHT22;11489;50.834;6.752;2023-05-10T12:28:47;19.10;92.20
22645;DHT22;11489;50.834;6.752;2023-05-10T12:31:13;19.00;92.20
22645;DHT22;11489;50.834;6.752;2023-05-10T12:33:43;19.00;92.10
22645;DHT22;11489;50.834;6.752;2023-05-10T12:36:11;19.00;91.90
22645;DHT22;11489;50.834;6.752;2023-05-10T12:38:44;18.90;91.40
22645;DHT22;11489;50.834;6.752;2023-05-10T12:41:15;18.80;91.10
22645;DHT22;11489;50.834;6.752;2023-05-10T12:43:41;18.60;91.40
22645;DHT22;11489;50.834;6.752;2023-05-10T12:46:08;18.50;91.50
22645;DHT22;11489;50.834;6.752;2023-05-10T12:48:35;18.40;92.00
22645;DHT22;11489;50.834;6.752;2023-05-10T12:51:04;18.40;92.50
22645;DHT22;11489;50.834;6.752;2023-05-10T12:53:30;18.50;92.60
22645;DHT22;11489;50.834;6.752;2023-05-10T12:55:57;18.50;93.30
22645;DHT22;11489;50.834;6.752;2023-05-10T12:58:23;18.70;93.60
22645;DHT22;11489;50.834;6.752;2023-05-10T13:00:48;18.80;93.80
22645;DHT22;11489;50.834;6.752;2023-05-10T13:03:14;19.00;93.30
22645;DHT22;11489;50.834;6.752;2023-05-10T13:05:41;19.00;93.80
22645;DHT22;11489;50.834;6.752;2023-05-10T13:08:06;19.30;94.70
22645;DHT22;11489;50.834;6.752;2023-05-10T13:10:32;19.60;94.40
22645;DHT22;11489;50.834;6.752;2023-05-10T13:12:58;19.80;93.70
22645;DHT22;11489;50.834;6.752;2023-05-10T13:15:25;20.10;93.40
22645;DHT22;11489;50.834;6.752;2023-05-10T13:17:50;20.30;93.10
22645;DHT22;11489;50.834;6.752;2023-05-10T13:20:16;20.40;92.20
22645;DHT22;11489;50.834;6.752;2023-05-10T13:22:45;20.50;91.40
22645;DHT22;11489;50.834;6.752;2023-05-10T13:25:12;20.40;90.60
22645;DHT22;11489;50.834;6.752;2023-05-10T13:27:41;20.40;90.90
22645;DHT22;11489;50.834;6.752;2023-05-10T13:30:08;20.30;90.60
22645;DHT22;11489;50.834;6.752;2023-05-10T13:32:33;20.20;90.40
22645;DHT22;11489;50.834;6.752;2023-05-10T13:35:00;20.10;90.60
22645;DHT22;11489;50.834;6.752;2023-05-10T13:37:25;20.00;90.30
22645;DHT22;11489;50.834;6.752;2023-05-10T13:39:51;19.90;90.30
22645;DHT22;11489;50.834;6.752;2023-05-10T13:42:17;19.90;90.30
22645;DHT22;11489;50.834;6.752;2023-05-10T13:44:43;19.80;90.60
22645;DHT22;11489;50.834;6.752;2023-05-10T13:47:09;19.70;90.40
22645;DHT22;11489;50.834;6.752;2023-05-10T13:49:35;19.60;90.00
22645;DHT22;11489;50.834;6.752;2023-05-10T13:52:01;19.40;90.40
22645;DHT22;11489;50.834;6.752;2023-05-10T13:54:38;19.40;90.80
22645;DHT22;11489;50.834;6.752;2023-05-10T13:57:07;19.40;90.50
22645;DHT22;11489;50.834;6.752;2023-05-10T13:59:32;19.40;91.90
22645;DHT22;11489;50.834;6.752;2023-05-10T14:01:59;19.60;91.80
22645;DHT22;11489;50.834;6.752;2023-05-10T14:04:24;19.70;91.20
22645;DHT22;11489;50.834;6.752;2023-05-10T14:06:50;19.80;90.80
22645;DHT22;11489;50.834;6.752;2023-05-10T14:09:16;19.80;90.60
22645;DHT22;11489;50.834;6.752;2023-05-10T14:11:42;19.80;90.70
22645;DHT22;11489;50.834;6.752;2023-05-10T14:14:11;19.90;90.70
22645;DHT22;11489;50.834;6.752;2023-05-10T14:16:38;19.90;90.20
22645;DHT22;11489;50.834;6.752;2023-05-10T14:19:03;19.90;90.50
22645;DHT22;11489;50.834;6.752;2023-05-10T14:21:29;20.00;90.40
22645;DHT22;11489;50.834;6.752;2023-05-10T14:23:56;20.00;90.20
22645;DHT22;11489;50.834;6.752;2023-05-10T14:26:22;20.00;90.40
22645;DHT22;11489;50.834;6.752;2023-05-10T14:28:48;20.00;90.40
22645;DHT22;11489;50.834;6.752;2023-05-10T14:31:13;20.10;90.70
22645;DHT22;11489;50.834;6.752;2023-05-10T14:33:40;20.10;90.50
22645;DHT22;11489;50.834;6.752;2023-05-10T14:36:06;20.10;89.60
22645;DHT22;11489;50.834;6.752;2023-05-10T14:38:32;20.10;90.00
22645;DHT22;11489;50.834;6.752;2023-05-10T14:40:58;20.00;90.20
22645;DHT22;11489;50.834;6.752;2023-05-10T14:43:24;20.10;90.40
22645;DHT22;11489;50.834;6.752;2023-05-10T14:45:50;20.10;90.30
22645;DHT22;11489;50.834;6.752;2023-05-10T14:48:15;20.20;90.00
22645;DHT22;11489;50.834;6.752;2023-05-10T14:50:43;20.20;89.30
22645;DHT22;11489;50.834;6.752;2023-05-10T14:53:09;20.30;89.10
22645;DHT22;11489;50.834;6.752;2023-05-10T14:55:35;20.30;89.00
22645;DHT22;11489;50.834;6.752;2023-05-10T14:58:02;20.20;88.50
22645;DHT22;11489;50.834;6.752;2023-05-10T15:00:29;20.30;88.20
22645;DHT22;11489;50.834;6.752;2023-05-10T15:02:54;20.20;87.40
22645;DHT22;11489;50.834;6.752;2023-05-10T15:05:20;20.10;87.60
22645;DHT22;11489;50.834;6.752;2023-05-10T15:07:46;20.10;87.70
22645;DHT22;11489;50.834;6.752;2023-05-10T15:10:11;20.00;87.60
22645;DHT22;11489;50.834;6.752;2023-05-10T15:12:37;19.90;87.60
22645;DHT22;11489;50.834;6.752;2023-05-10T15:15:04;19.90;87.80
22645;DHT22;11489;50.834;6.752;2023-05-10T15:17:30;19.80;87.10
22645;DHT22;11489;50.834;6.752;2023-05-10T15:19:56;19.80;87.30
22645;DHT22;11489;50.834;6.752;2023-05-10T15:22:21;19.70;87.20
22645;DHT22;11489;50.834;6.752;2023-05-10T15:24:47;19.60;87.30
22645;DHT22;11489;50.834;6.752;2023-05-10T15:27:13;19.60;87.20
22645;DHT22;11489;50.834;6.752;2023-05-10T15:29:39;19.50;87.30
22645;DHT22;11489;50.834;6.752;2023-05-10T15:32:04;19.50;87.80
22645;DHT22;11489;50.834;6.752;2023-05-10T15:34:30;19.50;88.30
22645;DHT22;11489;50.834;6.752;2023-05-10T15:36:56;19.50;88.50
22645;DHT22;11489;50.834;6.752;2023-05-10T15:39:21;19.50;88.60
22645;DHT22;11489;50.834;6.752;2023-05-10T15:41:47;19.60;88.50
22645;DHT22;11489;50.834;6.752;2023-05-10T15:44:13;19.60;88.10
22645;DHT22;11489;50.834;6.752;2023-05-10T15:46:38;19.60;87.60
22645;DHT22;11489;50.834;6.752;2023-05-10T15:49:04;19.60;87.50
22645;DHT22;11489;50.834;6.752;2023-05-10T15:51:31;19.60;87.10
22645;DHT22;11489;50.834;6.752;2023-05-10T15:53:58;19.50;87.70
22645;DHT22;11489;50.834;6.752;2023-05-10T15:56:24;19.50;87.00
22645;DHT22;11489;50.834;6.752;2023-05-10T15:58:51;19.40;86.80